createdAt,value
2023-05-05T00:03:24.222Z,17.33
2023-05-05T00:09:09.032Z,15.63
2023-05-05T00:14:56.938Z,16.73
2023-05-05T00:20:57.568Z,18.00
2023-05-05T00:26:17.614Z,17.98
2023-05-05T00:31:42.830Z,18.40
2023-05-05T00:37:07.485Z,16.50
2023-05-05T00:54:22.435Z,16.52
2023-05-05T01:06:34.726Z,13.75
2023-05-05T01:12:43.805Z,17.67
2023-05-05T01:19:18.645Z,16.17
2023-05-05T01:24:56.469Z,8.95
2023-05-05T01:30:44.678Z,14.55
2023-05-05T01:41:58.153Z,11.57
2023-05-05T01:47:35.893Z,10.15
2023-05-05T01:53:33.338Z,7.53
2023-05-05T01:59:46.024Z,15.07
2023-05-05T02:05:06.608Z,10.75
2023-05-05T02:10:48.021Z,20.35
2023-05-05T02:16:33.255Z,26.80
2023-05-05T02:27:36.653Z,15.02
2023-05-05T02:33:16.991Z,14.07
2023-05-05T02:38:49.125Z,15.32
2023-05-05T02:50:29.601Z,16.50
2023-05-05T02:56:10.346Z,19.33
2023-05-05T03:02:17.452Z,18.45
2023-05-05T03:08:19.860Z,13.95
2023-05-05T03:13:42.448Z,18.00
2023-05-05T03:19:01.737Z,21.75
2023-05-05T03:24:28.033Z,24.23
2023-05-05T03:30:13.143Z,18.50
2023-05-05T03:36:18.203Z,20.70
2023-05-05T03:42:03.370Z,16.92
2023-05-05T03:47:51.675Z,17.20
2023-05-05T03:53:33.255Z,20.67
2023-05-05T03:59:43.576Z,19.45
2023-05-05T04:05:50.834Z,21.05
2023-05-05T04:16:49.986Z,18.33
2023-05-05T04:22:39.024Z,17.33
2023-05-05T04:28:16.073Z,17.77
2023-05-05T04:34:08.774Z,19.70
2023-05-05T04:45:36.444Z,23.38
2023-05-05T05:08:15.557Z,19.83
2023-05-05T05:19:15.754Z,22.80
2023-05-05T05:31:04.327Z,16.35
2023-05-05T05:42:22.796Z,19.92
2023-05-05T05:48:09.904Z,21.67
2023-05-05T05:53:20.132Z,19.77
2023-05-05T05:58:33.525Z,20.20
2023-05-05T06:04:19.436Z,12.48
2023-05-05T06:15:42.557Z,18.35
2023-05-05T06:20:49.467Z,12.70
2023-05-05T06:25:52.036Z,14.80
2023-05-05T06:30:54.081Z,19.50
2023-05-05T06:35:56.185Z,24.65
2023-05-05T06:40:58.876Z,15.45
2023-05-05T06:46:01.135Z,24.80
2023-05-05T06:51:04.106Z,23.85
2023-05-05T06:56:06.264Z,14.05
2023-05-05T07:01:08.794Z,21.10
2023-05-05T07:06:11.537Z,21.27
2023-05-05T07:11:13.673Z,21.35
2023-05-05T07:16:15.894Z,18.25
2023-05-05T07:21:18.180Z,18.67
2023-05-05T07:26:20.397Z,19.15
2023-05-05T07:31:22.538Z,19.17
2023-05-05T07:36:24.684Z,19.88
2023-05-05T07:41:26.771Z,17.92
2023-05-05T07:46:28.887Z,14.75
2023-05-05T07:51:34.413Z,20.48
2023-05-05T07:56:36.971Z,22.80
2023-05-05T08:01:39.457Z,17.70
2023-05-05T08:06:41.570Z,21.20
2023-05-05T08:11:43.591Z,21.40
2023-05-05T08:16:48.387Z,14.18
2023-05-05T08:21:50.689Z,20.35
2023-05-05T08:26:53.771Z,20.33
2023-05-05T08:31:55.952Z,17.15
2023-05-05T08:36:58.172Z,22.83
2023-05-05T08:42:00.347Z,17.73
2023-05-05T08:47:02.826Z,13.35
2023-05-05T08:52:05.690Z,14.80
2023-05-05T08:57:10.183Z,18.17
2023-05-05T09:02:13.345Z,23.67
2023-05-05T09:07:15.684Z,19.63
2023-05-05T09:12:19.031Z,21.02
2023-05-05T09:17:30.924Z,16.90
2023-05-05T09:22:44.689Z,12.73
2023-05-05T09:28:23.613Z,20.75
2023-05-05T09:34:30.962Z,18.42
2023-05-05T09:40:24.142Z,14.65
2023-05-05T09:45:42.192Z,15.63
2023-05-05T09:51:03.133Z,19.27
2023-05-05T09:56:35.946Z,13.60
2023-05-05T10:08:55.604Z,17.90
2023-05-05T10:20:46.572Z,17.40
2023-05-05T10:26:24.934Z,18.08
2023-05-05T10:38:08.940Z,11.70
2023-05-05T10:43:52.220Z,10.32
2023-05-05T10:49:32.525Z,9.63
2023-05-05T10:55:02.777Z,16.58
2023-05-05T11:06:32.496Z,16.70
2023-05-05T11:23:24.159Z,7.90
2023-05-05T11:28:35.633Z,8.10
2023-05-05T11:33:40.766Z,8.50
2023-05-05T11:38:46.007Z,14.48
2023-05-05T11:43:48.165Z,9.85
2023-05-05T11:48:51.984Z,8.80
2023-05-05T11:53:54.264Z,8.75
2023-05-05T11:59:09.891Z,9.48
2023-05-05T12:04:13.512Z,11.88
2023-05-05T12:09:16.381Z,12.68
2023-05-05T12:14:18.884Z,11.75
2023-05-05T12:19:21.106Z,11.00
2023-05-05T12:24:23.522Z,8.23
2023-05-05T12:29:27.154Z,12.98
2023-05-05T12:34:29.367Z,11.43
2023-05-05T12:39:35.748Z,11.75
2023-05-05T12:44:38.917Z,17.17
2023-05-05T12:49:51.029Z,13.60
2023-05-05T12:54:57.406Z,15.63
2023-05-05T13:00:12.725Z,11.23
2023-05-05T13:05:14.987Z,10.98
2023-05-05T13:10:17.143Z,11.73
2023-05-05T13:15:19.280Z,18.08
2023-05-05T13:20:21.552Z,10.77
2023-05-05T13:25:24.289Z,6.68
2023-05-05T13:30:26.502Z,9.07
2023-05-05T13:35:28.653Z,9.10
2023-05-05T13:40:31.068Z,10.88
2023-05-05T13:45:33.844Z,12.50
2023-05-05T13:50:36.008Z,9.40
2023-05-05T13:55:38.320Z,15.75
2023-05-05T14:00:40.854Z,12.07
2023-05-05T14:05:43.134Z,10.88
2023-05-05T14:10:47.392Z,10.80
2023-05-05T14:15:50.967Z,13.63
2023-05-05T14:20:53.077Z,13.20
2023-05-05T14:25:55.310Z,10.63
2023-05-05T14:30:57.498Z,13.27
2023-05-05T14:36:00.190Z,17.35
2023-05-05T14:41:02.424Z,12.82
2023-05-05T14:46:07.028Z,12.93
2023-05-05T14:51:09.398Z,13.43
2023-05-05T14:56:11.570Z,18.40
2023-05-05T15:01:13.769Z,14.40
2023-05-05T15:06:16.785Z,17.73
2023-05-05T15:11:18.896Z,13.85
2023-05-05T15:16:21.489Z,59.90
2023-05-05T15:21:23.697Z,14.98
2023-05-05T15:26:26.937Z,11.32
2023-05-05T15:31:29.113Z,14.13
2023-05-05T15:36:32.536Z,10.43
2023-05-05T15:41:34.861Z,10.25
2023-05-05T15:46:37.003Z,9.23
2023-05-05T15:51:39.197Z,15.90
2023-05-05T15:56:41.511Z,12.45
2023-05-05T16:01:43.683Z,13.10
2023-05-05T16:06:45.889Z,16.00
2023-05-05T16:11:48.065Z,11.10
2023-05-05T16:16:50.274Z,10.30
2023-05-05T16:21:53.093Z,12.70
2023-05-05T16:26:55.414Z,14.20
2023-05-05T16:31:57.652Z,12.75
2023-05-05T16:36:59.957Z,14.48
2023-05-05T16:42:03.087Z,12.30
2023-05-05T16:47:05.402Z,12.90
2023-05-05T16:52:07.649Z,15.75
2023-05-05T16:57:10.062Z,13.88
2023-05-05T17:02:12.260Z,13.38
2023-05-05T17:07:14.395Z,11.40
2023-05-05T17:12:16.687Z,13.52
2023-05-05T17:17:18.871Z,17.45
2023-05-05T17:22:21.053Z,19.13
2023-05-05T17:27:23.340Z,21.77
2023-05-05T17:32:25.604Z,10.82
2023-05-05T17:37:27.891Z,13.48
2023-05-05T17:42:33.256Z,20.00
2023-05-05T17:47:35.442Z,16.80
2023-05-05T17:52:37.558Z,16.98
2023-05-05T17:57:40.034Z,18.77
2023-05-05T18:02:42.395Z,27.15
2023-05-05T18:07:44.742Z,24.15
2023-05-05T18:12:47.215Z,16.13
2023-05-05T18:17:49.723Z,19.75
2023-05-05T18:22:52.616Z,17.45
2023-05-05T18:27:54.883Z,24.55
2023-05-05T18:32:57.051Z,24.00
2023-05-05T18:37:59.226Z,21.38
2023-05-05T18:43:01.509Z,25.08
2023-05-05T18:48:04.792Z,21.52
2023-05-05T18:53:06.922Z,22.20
2023-05-05T18:58:09.596Z,22.17
2023-05-05T19:03:12.070Z,23.63
2023-05-05T19:08:14.283Z,19.25
2023-05-05T19:13:16.649Z,24.70
2023-05-05T19:18:19.071Z,20.85
2023-05-05T19:23:21.502Z,37.92
2023-05-05T19:28:23.875Z,37.97
2023-05-05T19:33:26.118Z,48.20
2023-05-05T19:38:29.452Z,55.45
2023-05-05T19:43:31.636Z,55.65
2023-05-05T19:48:33.967Z,48.50
2023-05-05T19:53:36.669Z,41.78
2023-05-05T19:58:58.083Z,43.95
2023-05-05T20:04:00.614Z,46.45
2023-05-05T20:09:03.042Z,42.13
2023-05-05T20:14:05.335Z,39.67
2023-05-05T20:19:07.511Z,35.88
2023-05-05T20:24:09.838Z,31.50
2023-05-05T20:29:12.026Z,33.17
2023-05-05T20:34:14.609Z,35.20
2023-05-05T20:39:16.830Z,32.78
2023-05-05T20:44:19.053Z,31.58
2023-05-05T20:49:21.254Z,32.13
2023-05-05T20:54:23.422Z,35.60
2023-05-05T20:59:28.140Z,33.20
2023-05-05T21:04:30.264Z,37.08
2023-05-05T21:09:32.472Z,32.63
2023-05-05T21:14:34.596Z,28.20
2023-05-05T21:19:36.757Z,30.55
2023-05-05T21:24:39.162Z,31.33
2023-05-05T21:29:41.416Z,31.88
2023-05-05T21:34:43.542Z,33.70
2023-05-05T21:39:45.696Z,30.85
2023-05-05T21:44:47.871Z,25.33
2023-05-05T21:49:50.050Z,29.90
2023-05-05T21:54:52.212Z,33.05
2023-05-05T21:59:54.399Z,30.67
2023-05-05T22:04:56.640Z,32.33
2023-05-05T22:09:58.893Z,31.88
2023-05-05T22:15:01.158Z,28.67
2023-05-05T22:20:06.484Z,29.25
2023-05-05T22:25:09.321Z,26.08
2023-05-05T22:30:12.081Z,26.35
2023-05-05T22:35:14.402Z,31.70
2023-05-05T22:40:16.744Z,24.60
2023-05-05T22:45:20.035Z,24.65
2023-05-05T22:50:22.224Z,27.50
2023-05-05T22:55:25.413Z,26.30
2023-05-05T23:00:28.615Z,29.02
2023-05-05T23:05:30.959Z,29.45
2023-05-05T23:10:33.194Z,24.08
2023-05-05T23:15:35.471Z,24.90
2023-05-05T23:20:37.866Z,22.33
2023-05-05T23:25:40.058Z,29.35
2023-05-05T23:30:42.365Z,22.60
2023-05-05T23:35:45.874Z,25.48
2023-05-05T23:40:48.131Z,23.48
2023-05-05T23:45:50.329Z,23.95
2023-05-05T23:50:52.882Z,26.77
2023-05-05T23:55:55.093Z,29.73
